createdAt,value
2019-03-25T00:01:24.524Z,63.18
2019-03-25T00:03:55.052Z,63.31
2019-03-25T00:06:25.501Z,63.98
2019-03-25T00:09:04.992Z,63.81
2019-03-25T00:11:28.431Z,63.52
2019-03-25T00:13:58.958Z,63.52
2019-03-25T00:16:29.482Z,63.70
2019-03-25T00:18:59.918Z,63.94
2019-03-25T00:21:30.309Z,64.04
2019-03-25T00:24:00.728Z,63.92
2019-03-25T00:26:31.237Z,64.29
2019-03-25T00:29:01.670Z,65.18
2019-03-25T00:31:32.106Z,65.76
2019-03-25T00:34:02.464Z,65.66
2019-03-25T00:36:33.055Z,65.70
2019-03-25T00:39:04.236Z,66.00
2019-03-25T00:41:34.622Z,66.47
2019-03-25T00:44:05.199Z,66.36
2019-03-25T00:46:35.619Z,65.72
2019-03-25T00:49:06.155Z,65.29
2019-03-25T00:51:36.572Z,65.93
2019-03-25T00:54:07.045Z,65.79
2019-03-25T00:56:37.505Z,65.70
2019-03-25T00:59:09.446Z,66.25
2019-03-25T01:01:39.890Z,66.52
2019-03-25T01:04:10.321Z,67.41
2019-03-25T01:06:40.728Z,67.89
2019-03-25T01:09:11.168Z,67.64
2019-03-25T01:11:49.054Z,67.22
2019-03-25T01:14:13.754Z,67.11
2019-03-25T01:16:44.236Z,67.15
2019-03-25T01:19:14.708Z,68.04
2019-03-25T01:21:45.138Z,67.85
2019-03-25T01:24:15.715Z,68.76
2019-03-25T01:26:46.193Z,67.61
2019-03-25T01:29:16.599Z,68.05
2019-03-25T01:31:47.023Z,67.68
2019-03-25T01:34:17.469Z,67.98
2019-03-25T01:36:47.931Z,67.31
2019-03-25T01:39:18.322Z,67.21
2019-03-25T01:41:48.753Z,66.54
2019-03-25T01:44:19.183Z,66.83
2019-03-25T01:46:49.636Z,67.43
2019-03-25T01:49:20.062Z,67.92
2019-03-25T01:51:50.858Z,68.37
2019-03-25T01:54:21.271Z,68.43
2019-03-25T01:56:51.668Z,68.55
2019-03-25T01:59:22.141Z,68.78
2019-03-25T02:01:52.621Z,68.65
2019-03-25T02:04:22.987Z,68.21
2019-03-25T02:06:53.367Z,68.40
2019-03-25T02:09:23.831Z,69.28
2019-03-25T02:11:54.221Z,68.73
2019-03-25T02:14:24.693Z,68.35
2019-03-25T02:16:55.157Z,68.95
2019-03-25T02:19:25.601Z,69.16
2019-03-25T02:21:56.015Z,69.60
2019-03-25T02:24:26.447Z,69.62
2019-03-25T02:26:56.872Z,69.81
2019-03-25T02:29:27.320Z,70.28
2019-03-25T02:31:57.757Z,70.10
2019-03-25T02:34:28.286Z,70.24
2019-03-25T02:36:58.765Z,70.22
2019-03-25T02:39:29.252Z,69.82
2019-03-25T02:41:59.909Z,69.09
2019-03-25T02:44:30.463Z,69.37
2019-03-25T02:47:03.172Z,69.89
2019-03-25T02:49:33.732Z,69.08
2019-03-25T02:52:04.247Z,69.07
2019-03-25T02:54:36.521Z,69.02
2019-03-25T02:57:07.023Z,69.11
2019-03-25T02:59:37.568Z,69.69
2019-03-25T03:02:07.992Z,70.97
2019-03-25T03:04:38.491Z,69.96
2019-03-25T03:07:08.973Z,69.89
2019-03-25T03:09:39.492Z,70.22
2019-03-25T03:12:10.018Z,69.76
2019-03-25T03:14:40.584Z,69.59
2019-03-25T03:17:10.983Z,69.83
2019-03-25T03:19:41.601Z,69.93
2019-03-25T03:22:12.235Z,70.23
2019-03-25T03:24:42.695Z,69.44
2019-03-25T03:27:13.127Z,69.33
2019-03-25T03:29:43.625Z,69.79
2019-03-25T03:32:14.150Z,69.69
2019-03-25T03:34:44.617Z,69.89
2019-03-25T03:37:15.070Z,69.84
2019-03-25T03:39:45.493Z,70.51
2019-03-25T03:42:15.920Z,71.01
2019-03-25T03:44:46.321Z,71.08
2019-03-25T03:47:16.765Z,70.78
2019-03-25T03:49:47.275Z,69.94
2019-03-25T03:52:17.756Z,69.41
2019-03-25T03:54:48.190Z,68.92
2019-03-25T03:57:18.614Z,68.68
2019-03-25T03:59:49.189Z,68.91
2019-03-25T04:02:19.736Z,68.21
2019-03-25T04:04:50.126Z,67.39
2019-03-25T04:07:20.685Z,67.36
2019-03-25T04:09:51.109Z,67.05
2019-03-25T04:12:21.675Z,66.74
2019-03-25T04:14:52.184Z,66.64
2019-03-25T04:17:22.493Z,66.29
2019-03-25T04:19:52.893Z,66.53
2019-03-25T04:22:23.321Z,66.25
2019-03-25T04:24:53.743Z,66.56
2019-03-25T04:27:24.247Z,66.45
2019-03-25T04:29:54.662Z,66.12
2019-03-25T04:32:25.304Z,65.77
2019-03-25T04:34:55.735Z,65.48
2019-03-25T04:37:26.162Z,65.49
2019-03-25T04:39:56.675Z,65.63
2019-03-25T04:42:27.119Z,64.99
2019-03-25T04:44:57.712Z,64.69
2019-03-25T04:47:28.108Z,64.71
2019-03-25T04:50:02.906Z,64.74
2019-03-25T04:53:00.170Z,64.36
2019-03-25T04:55:20.585Z,64.07
2019-03-25T04:57:52.765Z,63.40
2019-03-25T05:00:32.402Z,63.58
2019-03-25T05:03:05.641Z,62.88
2019-03-25T05:05:36.434Z,61.62
2019-03-25T05:08:06.972Z,58.79
2019-03-25T05:10:37.412Z,57.86
2019-03-25T05:13:07.853Z,57.56
2019-03-25T05:15:38.342Z,57.43
2019-03-25T05:18:08.837Z,57.20
2019-03-25T05:20:39.262Z,55.25
2019-03-25T05:23:09.820Z,55.23
2019-03-25T05:25:40.527Z,55.69
2019-03-25T05:28:10.973Z,55.75
2019-03-25T05:30:41.544Z,57.90
2019-03-25T05:33:12.135Z,58.70
2019-03-25T05:35:42.715Z,59.21
2019-03-25T05:38:13.244Z,59.08
2019-03-25T05:40:43.694Z,58.53
2019-03-25T05:43:14.160Z,58.04
2019-03-25T05:45:44.778Z,58.09
2019-03-25T05:48:15.366Z,57.77
2019-03-25T05:50:46.911Z,57.60
2019-03-25T05:53:18.963Z,56.75
2019-03-25T05:55:51.281Z,56.93
2019-03-25T05:58:28.533Z,56.54
2019-03-25T06:01:00.453Z,56.73
2019-03-25T06:03:30.961Z,55.95
2019-03-25T06:06:03.653Z,55.91
2019-03-25T06:08:34.391Z,55.87
2019-03-25T06:11:12.083Z,55.59
2019-03-25T06:14:01.351Z,56.32
2019-03-25T06:16:36.446Z,56.52
2019-03-25T06:19:08.575Z,55.74
2019-03-25T06:21:39.237Z,55.91
2019-03-25T06:24:09.760Z,55.60
2019-03-25T06:26:45.194Z,55.83
2019-03-25T06:29:31.998Z,54.88
2019-03-25T06:32:23.497Z,54.84
2019-03-25T06:35:18.806Z,54.88
2019-03-25T06:37:55.268Z,55.21
2019-03-25T06:40:28.842Z,54.54
2019-03-25T06:42:59.985Z,54.72
2019-03-25T06:45:31.550Z,54.68
2019-03-25T06:48:02.143Z,54.33
2019-03-25T06:50:32.734Z,55.00
2019-03-25T06:53:06.314Z,54.98
2019-03-25T06:55:54.693Z,54.56
2019-03-25T07:01:20.926Z,53.45
2019-03-25T07:03:51.733Z,54.21
2019-03-25T07:06:23.826Z,53.51
2019-03-25T07:08:55.393Z,53.55
2019-03-25T07:11:25.997Z,53.40
2019-03-25T07:13:56.679Z,52.00
2019-03-25T07:16:28.675Z,52.58
2019-03-25T07:18:59.099Z,51.84
2019-03-25T07:21:29.869Z,51.27
2019-03-25T07:24:01.827Z,51.67
2019-03-25T07:26:32.497Z,51.34
2019-03-25T07:29:02.970Z,50.34
2019-03-25T07:31:33.395Z,50.14
2019-03-25T07:34:04.145Z,48.95
2019-03-25T07:36:45.229Z,47.22
2019-03-25T07:39:15.760Z,46.90
2019-03-25T07:41:48.031Z,47.58
2019-03-25T07:44:23.555Z,46.47
2019-03-25T07:46:56.981Z,45.65
2019-03-25T07:49:27.583Z,44.88
2019-03-25T07:51:59.236Z,43.68
2019-03-25T07:54:29.777Z,45.30
2019-03-25T07:57:00.282Z,45.62
2019-03-25T07:59:33.414Z,43.10
2019-03-25T08:02:05.876Z,42.70
2019-03-25T08:04:38.778Z,41.67
2019-03-25T08:07:10.918Z,41.59
2019-03-25T08:09:44.314Z,41.35
2019-03-25T08:12:20.866Z,42.79
2019-03-25T08:14:51.560Z,41.04
2019-03-25T08:17:22.182Z,40.41
2019-03-25T08:19:52.948Z,39.38
2019-03-25T08:22:25.259Z,39.55
2019-03-25T08:25:03.217Z,39.59
2019-03-25T08:27:59.431Z,38.08
2019-03-25T08:30:29.972Z,37.48
2019-03-25T08:33:04.417Z,38.10
2019-03-25T08:35:37.492Z,37.12
2019-03-25T08:38:29.249Z,36.99
2019-03-25T08:41:01.498Z,37.65
2019-03-25T08:43:45.388Z,36.76
2019-03-25T08:46:21.601Z,36.40
2019-03-25T08:48:56.712Z,35.60
2019-03-25T08:51:29.160Z,36.17
2019-03-25T08:54:01.459Z,35.54
2019-03-25T08:56:40.590Z,35.72
2019-03-25T08:59:29.360Z,35.56
2019-03-25T09:02:22.825Z,35.13
2019-03-25T09:04:57.042Z,34.67
2019-03-25T09:07:37.340Z,35.39
2019-03-25T09:10:09.346Z,34.45
2019-03-25T09:12:44.406Z,35.29
2019-03-25T09:15:38.991Z,35.98
2019-03-25T09:18:15.033Z,35.46
2019-03-25T09:20:47.506Z,34.85
2019-03-25T09:24:07.203Z,36.26
2019-03-25T09:26:11.306Z,36.05
2019-03-25T09:28:48.118Z,35.69
2019-03-25T09:31:21.108Z,35.74
2019-03-25T09:33:51.630Z,35.28
2019-03-25T09:36:35.428Z,34.66
2019-03-25T09:39:19.166Z,34.51
2019-03-25T09:42:03.929Z,35.20
2019-03-25T09:44:54.081Z,36.02
2019-03-25T09:47:38.130Z,34.50
2019-03-25T09:50:17.033Z,34.03
2019-03-25T09:52:50.508Z,34.18
2019-03-25T09:55:27.400Z,34.64
2019-03-25T09:57:58.300Z,35.17
2019-03-25T10:00:33.797Z,35.31
2019-03-25T10:03:07.233Z,35.66
2019-03-25T10:05:39.592Z,35.78
2019-03-25T10:08:23.850Z,34.69
2019-03-25T10:10:54.063Z,35.49
2019-03-25T10:13:25.001Z,36.22
2019-03-25T10:15:55.956Z,35.90
2019-03-25T10:18:28.489Z,35.76
2019-03-25T10:21:06.076Z,35.84
2019-03-25T10:23:38.359Z,34.67
2019-03-25T10:26:11.616Z,33.73
2019-03-25T10:28:49.289Z,34.23
2019-03-25T10:31:33.639Z,34.37
2019-03-25T10:34:08.834Z,34.75
2019-03-25T10:36:58.459Z,33.86
2019-03-25T10:39:41.313Z,33.77
2019-03-25T10:42:21.229Z,34.61
2019-03-25T10:44:51.694Z,34.87
2019-03-25T10:47:22.458Z,33.83
2019-03-25T10:49:52.929Z,33.35
2019-03-25T10:52:23.381Z,32.87
2019-03-25T10:57:28.124Z,32.76
2019-03-25T11:00:01.745Z,32.10
2019-03-25T11:02:32.355Z,32.26
2019-03-25T11:05:02.808Z,31.77
2019-03-25T11:07:34.903Z,32.81
2019-03-25T11:10:08.153Z,32.92
2019-03-25T11:12:38.826Z,33.29
2019-03-25T11:15:09.928Z,32.81
2019-03-25T11:17:40.460Z,33.48
2019-03-25T11:20:10.974Z,33.36
2019-03-25T11:22:41.512Z,34.00
2019-03-25T11:25:16.534Z,33.48
2019-03-25T11:27:54.263Z,34.06
2019-03-25T11:30:22.314Z,33.94
2019-03-25T11:32:52.751Z,32.93
2019-03-25T11:35:24.319Z,32.76
2019-03-25T11:37:54.772Z,32.00
2019-03-25T11:40:25.121Z,33.62
2019-03-25T11:42:55.566Z,32.07
2019-03-25T11:45:26.093Z,32.10
2019-03-25T11:47:56.666Z,32.06
2019-03-25T11:50:27.128Z,31.17
2019-03-25T11:52:57.538Z,30.65
2019-03-25T11:55:28.017Z,30.63
2019-03-25T11:57:58.466Z,30.96
2019-03-25T12:00:28.937Z,31.49
2019-03-25T12:02:59.372Z,31.44
2019-03-25T12:05:29.959Z,30.82
2019-03-25T12:08:00.368Z,31.41
2019-03-25T12:10:30.958Z,30.44
2019-03-25T12:13:01.369Z,30.37
2019-03-25T12:15:31.873Z,31.62
2019-03-25T12:18:02.291Z,31.26
2019-03-25T12:20:32.697Z,30.58
2019-03-25T12:23:03.133Z,30.07
2019-03-25T12:25:33.558Z,30.25
2019-03-25T12:28:04.121Z,30.39
2019-03-25T12:30:34.565Z,29.79
2019-03-25T12:33:05.074Z,29.82
2019-03-25T12:35:35.519Z,29.15
2019-03-25T12:38:05.946Z,29.39
2019-03-25T12:40:36.577Z,28.18
2019-03-25T12:43:06.959Z,28.33
2019-03-25T12:45:37.461Z,29.52
2019-03-25T12:48:07.939Z,29.34
2019-03-25T12:50:38.394Z,27.56
2019-03-25T12:53:08.803Z,28.62
2019-03-25T12:55:39.210Z,28.53
2019-03-25T12:58:09.624Z,28.08
2019-03-25T13:00:43.789Z,28.40
2019-03-25T13:03:14.245Z,29.39
2019-03-25T13:05:46.558Z,29.71
2019-03-25T13:08:17.027Z,30.29
2019-03-25T13:10:47.581Z,30.31
2019-03-25T13:13:18.020Z,30.67
2019-03-25T13:15:48.866Z,31.31
2019-03-25T13:18:19.386Z,31.00
2019-03-25T13:20:49.972Z,31.05
2019-03-25T13:23:20.578Z,31.71
2019-03-25T13:25:51.158Z,32.55
2019-03-25T13:28:21.707Z,32.60
2019-03-25T13:30:52.227Z,32.91
2019-03-25T13:33:22.770Z,32.73
2019-03-25T13:35:53.388Z,32.76
2019-03-25T13:38:28.264Z,32.62
2019-03-25T13:40:58.721Z,32.63
2019-03-25T13:43:29.175Z,32.79
2019-03-25T13:46:05.605Z,30.99
2019-03-25T13:48:34.478Z,31.32
2019-03-25T13:51:04.955Z,31.06
2019-03-25T13:53:35.518Z,31.77
2019-03-25T13:56:06.460Z,32.56
2019-03-25T13:58:37.114Z,32.72
2019-03-25T14:01:09.125Z,32.60
2019-03-25T14:03:39.693Z,32.65
2019-03-25T14:06:10.193Z,32.84
2019-03-25T14:08:40.706Z,32.91
2019-03-25T14:11:12.912Z,32.33
2019-03-25T14:13:49.235Z,33.15
2019-03-25T14:16:15.543Z,31.94
2019-03-25T14:18:46.041Z,31.58
2019-03-25T14:21:16.483Z,32.49
2019-03-25T14:23:47.008Z,33.65
2019-03-25T14:26:17.484Z,34.33
2019-03-25T14:28:48.191Z,35.11
2019-03-25T14:31:18.843Z,35.40
2019-03-25T14:33:49.255Z,35.10
2019-03-25T14:36:22.476Z,34.58
2019-03-25T14:38:55.778Z,34.01
2019-03-25T14:41:27.873Z,32.50
2019-03-25T14:43:58.335Z,31.92
2019-03-25T14:46:28.809Z,30.91
2019-03-25T14:48:59.374Z,30.23
2019-03-25T14:51:30.082Z,30.66
2019-03-25T14:54:00.415Z,30.32
2019-03-25T14:56:30.897Z,30.33
2019-03-25T14:59:01.412Z,30.37
2019-03-25T15:01:32.447Z,29.81
2019-03-25T15:04:03.051Z,30.37
2019-03-25T15:06:34.205Z,30.24
2019-03-25T15:09:08.026Z,30.50
2019-03-25T15:11:40.027Z,30.88
2019-03-25T15:14:10.462Z,32.36
2019-03-25T15:16:40.936Z,34.12
2019-03-25T15:19:11.475Z,36.27
2019-03-25T15:21:41.992Z,38.28
2019-03-25T15:24:12.480Z,40.34
2019-03-25T15:26:43.009Z,42.90
2019-03-25T15:29:13.862Z,44.86
2019-03-25T15:31:44.418Z,46.36
2019-03-25T15:34:15.310Z,48.12
2019-03-25T15:36:46.997Z,48.81
2019-03-25T15:39:19.133Z,49.91
2019-03-25T15:41:50.072Z,50.47
2019-03-25T15:44:20.595Z,51.21
2019-03-25T15:46:55.617Z,51.70
2019-03-25T15:49:23.343Z,52.55
2019-03-25T15:51:53.988Z,53.19
2019-03-25T15:54:26.043Z,53.68
2019-03-25T15:56:56.538Z,54.22
2019-03-25T15:59:27.176Z,54.83
2019-03-25T16:01:57.647Z,54.96
2019-03-25T16:04:28.265Z,55.65
2019-03-25T16:07:01.235Z,55.77
2019-03-25T16:09:31.582Z,55.96
2019-03-25T16:12:02.052Z,56.69
2019-03-25T16:14:32.433Z,56.43
2019-03-25T16:17:02.876Z,56.46
2019-03-25T16:19:34.417Z,56.80
2019-03-25T16:22:05.496Z,57.10
2019-03-25T16:24:36.020Z,57.46
2019-03-25T16:27:06.478Z,57.60
2019-03-25T16:29:37.083Z,57.40
2019-03-25T16:32:07.606Z,57.78
2019-03-25T16:34:38.080Z,57.84
2019-03-25T16:37:09.021Z,57.80
2019-03-25T16:39:39.984Z,57.84
2019-03-25T16:42:10.456Z,57.85
2019-03-25T16:44:40.918Z,58.24
2019-03-25T16:47:11.416Z,58.72
2019-03-25T16:49:41.893Z,59.97
2019-03-25T16:52:14.266Z,60.87
2019-03-25T16:54:44.794Z,60.76
2019-03-25T16:57:18.935Z,61.37
2019-03-25T16:59:49.426Z,62.15
2019-03-25T17:02:19.933Z,61.86
2019-03-25T17:04:50.449Z,62.23
2019-03-25T17:07:21.096Z,63.24
2019-03-25T17:09:51.713Z,64.17
2019-03-25T17:12:22.154Z,64.36
2019-03-25T17:14:53.224Z,65.83
2019-03-25T17:17:28.569Z,66.98
2019-03-25T17:19:59.136Z,68.82
2019-03-25T17:22:31.181Z,69.29
2019-03-25T17:25:04.165Z,68.75
2019-03-25T17:27:48.877Z,71.28
2019-03-25T17:30:37.761Z,72.10
2019-03-25T17:33:08.420Z,71.21
2019-03-25T17:35:39.674Z,71.06
2019-03-25T17:38:12.190Z,70.81
2019-03-25T17:40:42.709Z,71.62
2019-03-25T17:43:13.372Z,72.54
2019-03-25T17:45:45.664Z,70.24
2019-03-25T17:48:18.735Z,70.90
2019-03-25T17:50:49.356Z,70.47
2019-03-25T17:53:20.159Z,71.51
2019-03-25T17:55:58.558Z,71.87
2019-03-25T17:58:29.427Z,72.21
2019-03-25T18:01:06.416Z,71.24
2019-03-25T18:03:37.236Z,72.51
2019-03-25T18:06:11.641Z,72.37
2019-03-25T18:08:42.540Z,72.67
2019-03-25T18:11:14.789Z,72.81
2019-03-25T18:13:46.572Z,72.64
2019-03-25T18:16:17.940Z,72.18
2019-03-25T18:18:52.991Z,72.35
2019-03-25T18:21:25.869Z,72.46
2019-03-25T18:23:56.586Z,72.18
2019-03-25T18:26:29.768Z,71.91
2019-03-25T18:29:01.436Z,71.96
2019-03-25T18:31:42.430Z,71.70
2019-03-25T18:34:04.087Z,71.71
2019-03-25T18:36:34.631Z,72.11
2019-03-25T18:39:07.637Z,72.23
2019-03-25T18:41:39.038Z,71.23
2019-03-25T18:44:26.029Z,71.51
2019-03-25T18:46:59.094Z,71.59
2019-03-25T18:49:32.621Z,71.87
2019-03-25T18:52:03.285Z,71.78
2019-03-25T18:54:35.833Z,71.66
2019-03-25T18:57:16.957Z,71.19
2019-03-25T19:00:00.317Z,70.42
2019-03-25T19:02:32.887Z,70.44
2019-03-25T19:05:05.982Z,70.33
2019-03-25T19:07:36.560Z,70.37
2019-03-25T19:10:10.452Z,70.53
2019-03-25T19:12:42.615Z,70.84
2019-03-25T19:15:13.114Z,70.54
2019-03-25T19:17:46.624Z,70.84
2019-03-25T19:20:17.165Z,70.89
2019-03-25T19:22:48.026Z,70.92
2019-03-25T19:25:18.570Z,70.65
2019-03-25T19:27:49.079Z,71.10
2019-03-25T19:30:19.520Z,71.29
2019-03-25T19:32:50.004Z,71.30
2019-03-25T19:35:21.534Z,71.63
2019-03-25T19:37:52.206Z,72.12
2019-03-25T19:40:22.764Z,72.67
2019-03-25T19:42:53.304Z,73.40
2019-03-25T19:45:23.842Z,73.36
2019-03-25T19:47:54.379Z,73.18
2019-03-25T19:50:24.877Z,73.79
2019-03-25T19:52:55.323Z,72.67
2019-03-25T19:55:25.790Z,74.29
2019-03-25T19:57:57.596Z,74.15
2019-03-25T20:00:39.856Z,75.29
2019-03-25T20:03:13.439Z,75.07
2019-03-25T20:05:43.951Z,74.85
2019-03-25T20:08:16.607Z,75.10
2019-03-25T20:10:47.052Z,76.07
2019-03-25T20:13:17.431Z,76.73
2019-03-25T20:15:48.353Z,77.79
2019-03-25T20:18:18.966Z,76.83
2019-03-25T20:20:49.422Z,76.71
2019-03-25T20:23:20.491Z,76.92
2019-03-25T20:25:51.124Z,77.07
2019-03-25T20:28:21.713Z,77.46
2019-03-25T20:30:52.255Z,78.34
2019-03-25T20:33:23.559Z,79.15
2019-03-25T20:35:54.079Z,79.68
2019-03-25T20:38:24.709Z,80.51
2019-03-25T20:40:55.293Z,81.16
2019-03-25T20:43:25.896Z,81.70
2019-03-25T20:45:56.556Z,82.02
2019-03-25T20:48:27.145Z,82.11
2019-03-25T20:50:57.628Z,82.38
2019-03-25T20:53:28.158Z,82.53
2019-03-25T20:55:58.648Z,82.43
2019-03-25T20:58:29.178Z,82.71
2019-03-25T21:00:59.990Z,82.19
2019-03-25T21:03:30.485Z,82.15
2019-03-25T21:06:00.915Z,81.77
2019-03-25T21:08:31.494Z,81.68
2019-03-25T21:11:01.952Z,81.92
2019-03-25T21:13:35.023Z,81.66
2019-03-25T21:16:07.473Z,81.67
2019-03-25T21:18:42.753Z,81.51
2019-03-25T21:21:18.874Z,81.75
2019-03-25T21:23:49.796Z,81.26
2019-03-25T21:26:29.916Z,81.30
2019-03-25T21:29:03.016Z,81.13
2019-03-25T21:31:39.247Z,80.94
2019-03-25T21:34:11.628Z,80.90
2019-03-25T21:36:44.608Z,80.76
2019-03-25T21:39:18.052Z,80.46
2019-03-25T21:41:48.665Z,80.95
2019-03-25T21:44:19.162Z,81.08
2019-03-25T21:46:49.919Z,80.91
2019-03-25T21:49:20.377Z,80.99
2019-03-25T21:51:52.853Z,80.83
2019-03-25T21:54:28.535Z,80.81
2019-03-25T21:56:59.843Z,80.97
2019-03-25T21:59:30.414Z,80.74
2019-03-25T22:02:01.139Z,80.98
2019-03-25T22:04:31.670Z,80.61
2019-03-25T22:07:02.193Z,80.75
2019-03-25T22:09:32.716Z,81.05
2019-03-25T22:12:03.312Z,81.25
2019-03-25T22:14:33.887Z,81.21
2019-03-25T22:17:04.339Z,81.24
2019-03-25T22:19:34.748Z,81.43
2019-03-25T22:22:05.281Z,81.53
2019-03-25T22:24:36.045Z,81.54
2019-03-25T22:27:07.526Z,81.35
2019-03-25T22:29:37.971Z,81.31
2019-03-25T22:32:08.581Z,81.69
2019-03-25T22:34:39.000Z,81.65
2019-03-25T22:37:09.482Z,81.74
2019-03-25T22:39:39.983Z,82.01
2019-03-25T22:42:10.414Z,81.61
2019-03-25T22:44:40.925Z,81.64
2019-03-25T22:47:11.342Z,81.66
2019-03-25T22:49:41.718Z,81.73
2019-03-25T22:52:12.167Z,82.02
2019-03-25T22:54:42.687Z,81.73
2019-03-25T22:57:13.088Z,81.93
2019-03-25T22:59:43.498Z,81.77
2019-03-25T23:02:13.975Z,81.64
2019-03-25T23:04:45.295Z,82.03
2019-03-25T23:07:22.247Z,82.15
2019-03-25T23:10:04.292Z,82.27
2019-03-25T23:12:49.792Z,82.03
2019-03-25T23:15:20.263Z,82.10
2019-03-25T23:17:50.748Z,82.23
2019-03-25T23:20:21.173Z,82.37
2019-03-25T23:22:51.640Z,82.74
2019-03-25T23:25:22.184Z,83.21
2019-03-25T23:27:52.802Z,83.42
2019-03-25T23:30:23.224Z,83.50
2019-03-25T23:32:53.793Z,83.75
2019-03-25T23:35:24.052Z,83.91
2019-03-25T23:37:54.490Z,83.93
2019-03-25T23:40:24.981Z,83.74
2019-03-25T23:42:55.522Z,83.86
2019-03-25T23:46:20.033Z,83.85
2019-03-25T23:48:50.490Z,84.03
2019-03-25T23:51:21.071Z,83.93
2019-03-25T23:53:53.132Z,84.07
2019-03-25T23:56:23.563Z,83.87
2019-03-25T23:58:54.012Z,83.96
